sensor_id;sensor_type;location;lat;lon;timestamp;P1;durP1;ratioP1;P2;durP2;ratioP2
74616;SDS011;63123;50.906;4.198;2022-12-20T00:02:12;3.85;;;3.45;;
74616;SDS011;63123;50.906;4.198;2022-12-20T00:04:38;3.60;;;2.95;;
74616;SDS011;63123;50.906;4.198;2022-12-20T00:07:03;2.95;;;2.75;;
74616;SDS011;63123;50.906;4.198;2022-12-20T00:09:29;3.38;;;3.08;;
74616;SDS011;63123;50.906;4.198;2022-12-20T00:11:54;3.75;;;3.25;;
74616;SDS011;63123;50.906;4.198;2022-12-20T00:14:20;4.07;;;2.63;;
74616;SDS011;63123;50.906;4.198;2022-12-20T00:16:45;4.43;;;3.53;;
74616;SDS011;63123;50.906;4.198;2022-12-20T00:19:11;3.42;;;3.08;;
74616;SDS011;63123;50.906;4.198;2022-12-20T00:21:37;3.78;;;2.47;;
74616;SDS011;63123;50.906;4.198;2022-12-20T00:24:03;2.83;;;2.53;;
74616;SDS011;63123;50.906;4.198;2022-12-20T00:26:30;3.60;;;2.70;;
74616;SDS011;63123;50.906;4.198;2022-12-20T00:28:58;3.30;;;2.78;;
74616;SDS011;63123;50.906;4.198;2022-12-20T00:31:25;3.03;;;2.83;;
74616;SDS011;63123;50.906;4.198;2022-12-20T00:33:53;2.78;;;2.20;;
74616;SDS011;63123;50.906;4.198;2022-12-20T00:36:20;2.97;;;2.60;;
74616;SDS011;63123;50.906;4.198;2022-12-20T00:38:48;3.67;;;3.13;;
74616;SDS011;63123;50.906;4.198;2022-12-20T00:41:17;2.60;;;2.40;;
74616;SDS011;63123;50.906;4.198;2022-12-20T00:43:44;2.70;;;2.50;;
74616;SDS011;63123;50.906;4.198;2022-12-20T00:46:10;3.50;;;3.00;;
74616;SDS011;63123;50.906;4.198;2022-12-20T00:48:37;4.05;;;2.97;;
74616;SDS011;63123;50.906;4.198;2022-12-20T00:51:04;3.22;;;2.58;;
74616;SDS011;63123;50.906;4.198;2022-12-20T00:53:32;3.20;;;2.65;;
74616;SDS011;63123;50.906;4.198;2022-12-20T00:55:58;2.80;;;2.50;;
74616;SDS011;63123;50.906;4.198;2022-12-20T00:58:24;3.17;;;2.53;;
74616;SDS011;63123;50.906;4.198;2022-12-20T01:00:50;4.63;;;2.80;;
74616;SDS011;63123;50.906;4.198;2022-12-20T01:03:16;3.30;;;3.00;;
74616;SDS011;63123;50.906;4.198;2022-12-20T01:05:49;3.53;;;2.80;;
74616;SDS011;63123;50.906;4.198;2022-12-20T01:08:16;2.80;;;2.60;;
74616;SDS011;63123;50.906;4.198;2022-12-20T01:10:42;3.05;;;2.47;;
74616;SDS011;63123;50.906;4.198;2022-12-20T01:13:08;2.58;;;2.35;;
74616;SDS011;63123;50.906;4.198;2022-12-20T01:15:33;2.72;;;2.53;;
74616;SDS011;63123;50.906;4.198;2022-12-20T01:17:59;2.90;;;2.30;;
74616;SDS011;63123;50.906;4.198;2022-12-20T01:20:24;3.13;;;2.70;;
74616;SDS011;63123;50.906;4.198;2022-12-20T01:22:50;3.70;;;2.60;;
74616;SDS011;63123;50.906;4.198;2022-12-20T01:25:16;2.97;;;2.35;;
74616;SDS011;63123;50.906;4.198;2022-12-20T01:27:41;2.65;;;2.30;;
74616;SDS011;63123;50.906;4.198;2022-12-20T01:30:07;3.10;;;2.80;;
74616;SDS011;63123;50.906;4.198;2022-12-20T01:32:33;2.97;;;2.75;;
74616;SDS011;63123;50.906;4.198;2022-12-20T01:34:59;2.90;;;2.55;;
74616;SDS011;63123;50.906;4.198;2022-12-20T01:37:24;3.50;;;2.90;;
74616;SDS011;63123;50.906;4.198;2022-12-20T01:39:50;2.33;;;1.90;;
74616;SDS011;63123;50.906;4.198;2022-12-20T01:42:16;2.97;;;2.40;;
74616;SDS011;63123;50.906;4.198;2022-12-20T01:47:07;2.50;;;2.30;;
74616;SDS011;63123;50.906;4.198;2022-12-20T01:49:34;2.47;;;2.22;;
74616;SDS011;63123;50.906;4.198;2022-12-20T01:52:12;3.10;;;2.30;;
74616;SDS011;63123;50.906;4.198;2022-12-20T01:54:39;2.60;;;2.40;;
74616;SDS011;63123;50.906;4.198;2022-12-20T01:57:12;2.90;;;2.60;;
74616;SDS011;63123;50.906;4.198;2022-12-20T01:59:48;2.53;;;2.28;;
74616;SDS011;63123;50.906;4.198;2022-12-20T02:02:15;2.50;;;2.30;;
74616;SDS011;63123;50.906;4.198;2022-12-20T02:04:42;2.78;;;2.30;;
74616;SDS011;63123;50.906;4.198;2022-12-20T02:07:07;2.90;;;2.40;;
74616;SDS011;63123;50.906;4.198;2022-12-20T02:09:41;3.25;;;2.97;;
74616;SDS011;63123;50.906;4.198;2022-12-20T02:12:08;2.63;;;2.10;;
74616;SDS011;63123;50.906;4.198;2022-12-20T02:17:25;2.38;;;2.17;;
74616;SDS011;63123;50.906;4.198;2022-12-20T02:20:13;3.28;;;2.72;;
74616;SDS011;63123;50.906;4.198;2022-12-20T02:31:26;2.75;;;2.55;;
74616;SDS011;63123;50.906;4.198;2022-12-20T02:34:01;2.65;;;2.45;;
74616;SDS011;63123;50.906;4.198;2022-12-20T02:36:29;2.88;;;1.92;;
74616;SDS011;63123;50.906;4.198;2022-12-20T02:38:55;2.65;;;1.92;;
74616;SDS011;63123;50.906;4.198;2022-12-20T02:41:22;1.95;;;1.70;;
74616;SDS011;63123;50.906;4.198;2022-12-20T02:43:57;2.42;;;2.22;;
74616;SDS011;63123;50.906;4.198;2022-12-20T02:46:50;2.30;;;2.10;;
74616;SDS011;63123;50.906;4.198;2022-12-20T02:49:18;2.28;;;1.65;;
74616;SDS011;63123;50.906;4.198;2022-12-20T02:51:46;2.08;;;1.83;;
74616;SDS011;63123;50.906;4.198;2022-12-20T02:54:15;2.28;;;2.00;;
74616;SDS011;63123;50.906;4.198;2022-12-20T02:56:49;2.83;;;1.95;;
74616;SDS011;63123;50.906;4.198;2022-12-20T02:59:20;2.60;;;2.33;;
74616;SDS011;63123;50.906;4.198;2022-12-20T03:01:53;2.22;;;2.03;;
74616;SDS011;63123;50.906;4.198;2022-12-20T03:04:24;1.95;;;1.85;;
74616;SDS011;63123;50.906;4.198;2022-12-20T03:06:56;2.25;;;2.10;;
74616;SDS011;63123;50.906;4.198;2022-12-20T03:11:54;2.08;;;1.80;;
74616;SDS011;63123;50.906;4.198;2022-12-20T03:14:20;1.83;;;1.70;;
74616;SDS011;63123;50.906;4.198;2022-12-20T03:16:46;2.10;;;1.90;;
74616;SDS011;63123;50.906;4.198;2022-12-20T03:19:11;2.28;;;2.05;;
74616;SDS011;63123;50.906;4.198;2022-12-20T03:21:37;2.40;;;2.15;;
74616;SDS011;63123;50.906;4.198;2022-12-20T03:24:03;2.45;;;1.80;;
74616;SDS011;63123;50.906;4.198;2022-12-20T03:26:28;2.33;;;1.92;;
74616;SDS011;63123;50.906;4.198;2022-12-20T03:28:54;2.20;;;2.00;;
74616;SDS011;63123;50.906;4.198;2022-12-20T03:31:20;3.10;;;2.20;;
74616;SDS011;63123;50.906;4.198;2022-12-20T03:33:45;2.45;;;2.25;;
74616;SDS011;63123;50.906;4.198;2022-12-20T03:36:11;2.08;;;1.90;;
74616;SDS011;63123;50.906;4.198;2022-12-20T03:38:37;1.63;;;1.52;;
74616;SDS011;63123;50.906;4.198;2022-12-20T03:41:02;2.03;;;1.77;;
74616;SDS011;63123;50.906;4.198;2022-12-20T03:43:28;2.50;;;2.38;;
74616;SDS011;63123;50.906;4.198;2022-12-20T03:45:54;2.50;;;2.10;;
74616;SDS011;63123;50.906;4.198;2022-12-20T03:48:19;2.30;;;1.83;;
74616;SDS011;63123;50.906;4.198;2022-12-20T03:50:45;2.22;;;2.03;;
74616;SDS011;63123;50.906;4.198;2022-12-20T03:53:11;2.22;;;2.03;;
74616;SDS011;63123;50.906;4.198;2022-12-20T03:55:36;2.20;;;1.88;;
74616;SDS011;63123;50.906;4.198;2022-12-20T03:58:02;1.77;;;1.67;;
74616;SDS011;63123;50.906;4.198;2022-12-20T04:00:27;2.75;;;2.22;;
74616;SDS011;63123;50.906;4.198;2022-12-20T04:02:53;1.60;;;1.50;;
74616;SDS011;63123;50.906;4.198;2022-12-20T04:05:19;1.67;;;1.58;;
74616;SDS011;63123;50.906;4.198;2022-12-20T04:07:45;1.45;;;1.35;;
74616;SDS011;63123;50.906;4.198;2022-12-20T04:10:11;2.08;;;1.88;;
74616;SDS011;63123;50.906;4.198;2022-12-20T04:12:36;3.08;;;2.10;;
74616;SDS011;63123;50.906;4.198;2022-12-20T04:15:02;1.92;;;1.83;;
74616;SDS011;63123;50.906;4.198;2022-12-20T04:17:28;2.17;;;1.98;;
74616;SDS011;63123;50.906;4.198;2022-12-20T04:19:53;1.77;;;1.67;;
74616;SDS011;63123;50.906;4.198;2022-12-20T04:22:19;1.75;;;1.65;;
74616;SDS011;63123;50.906;4.198;2022-12-20T04:24:45;2.10;;;1.98;;
74616;SDS011;63123;50.906;4.198;2022-12-20T04:27:10;2.20;;;1.85;;
74616;SDS011;63123;50.906;4.198;2022-12-20T04:29:36;2.08;;;1.65;;
74616;SDS011;63123;50.906;4.198;2022-12-20T04:32:02;2.78;;;1.67;;
74616;SDS011;63123;50.906;4.198;2022-12-20T04:34:27;2.25;;;1.90;;
74616;SDS011;63123;50.906;4.198;2022-12-20T04:36:53;1.88;;;1.63;;
74616;SDS011;63123;50.906;4.198;2022-12-20T04:39:18;1.88;;;1.70;;
74616;SDS011;63123;50.906;4.198;2022-12-20T04:41:44;1.90;;;1.40;;
74616;SDS011;63123;50.906;4.198;2022-12-20T04:44:09;1.88;;;1.52;;
74616;SDS011;63123;50.906;4.198;2022-12-20T04:46:35;2.00;;;1.70;;
74616;SDS011;63123;50.906;4.198;2022-12-20T04:49:01;1.83;;;1.65;;
74616;SDS011;63123;50.906;4.198;2022-12-20T04:51:26;1.88;;;1.60;;
74616;SDS011;63123;50.906;4.198;2022-12-20T04:53:52;1.60;;;1.40;;
74616;SDS011;63123;50.906;4.198;2022-12-20T04:56:20;1.77;;;1.67;;
74616;SDS011;63123;50.906;4.198;2022-12-20T04:58:51;1.90;;;1.60;;
74616;SDS011;63123;50.906;4.198;2022-12-20T05:01:18;1.80;;;1.70;;
74616;SDS011;63123;50.906;4.198;2022-12-20T05:03:44;1.63;;;1.42;;
74616;SDS011;63123;50.906;4.198;2022-12-20T05:06:10;1.83;;;1.70;;
74616;SDS011;63123;50.906;4.198;2022-12-20T05:08:37;1.85;;;1.63;;
74616;SDS011;63123;50.906;4.198;2022-12-20T05:11:03;2.20;;;2.00;;
74616;SDS011;63123;50.906;4.198;2022-12-20T05:13:29;2.10;;;1.50;;
74616;SDS011;63123;50.906;4.198;2022-12-20T05:15:55;1.75;;;1.50;;
74616;SDS011;63123;50.906;4.198;2022-12-20T05:18:22;1.30;;;1.20;;
74616;SDS011;63123;50.906;4.198;2022-12-20T05:20:49;2.67;;;1.38;;
74616;SDS011;63123;50.906;4.198;2022-12-20T05:23:34;1.77;;;1.58;;
74616;SDS011;63123;50.906;4.198;2022-12-20T05:26:19;1.50;;;1.40;;
74616;SDS011;63123;50.906;4.198;2022-12-20T05:28:45;1.67;;;1.48;;
74616;SDS011;63123;50.906;4.198;2022-12-20T05:31:10;1.50;;;1.40;;
74616;SDS011;63123;50.906;4.198;2022-12-20T05:33:36;1.85;;;1.65;;
74616;SDS011;63123;50.906;4.198;2022-12-20T05:36:02;1.80;;;1.60;;
74616;SDS011;63123;50.906;4.198;2022-12-20T05:38:27;1.70;;;1.60;;
74616;SDS011;63123;50.906;4.198;2022-12-20T05:40:53;2.08;;;1.80;;
74616;SDS011;63123;50.906;4.198;2022-12-20T05:43:18;2.45;;;1.42;;
74616;SDS011;63123;50.906;4.198;2022-12-20T05:45:48;1.55;;;1.30;;
74616;SDS011;63123;50.906;4.198;2022-12-20T05:48:16;1.77;;;1.30;;
74616;SDS011;63123;50.906;4.198;2022-12-20T05:50:42;1.60;;;1.25;;
74616;SDS011;63123;50.906;4.198;2022-12-20T05:53:11;1.85;;;1.45;;
74616;SDS011;63123;50.906;4.198;2022-12-20T05:55:42;2.00;;;1.48;;
74616;SDS011;63123;50.906;4.198;2022-12-20T05:58:09;2.17;;;1.60;;
74616;SDS011;63123;50.906;4.198;2022-12-20T06:00:37;1.52;;;1.40;;
74616;SDS011;63123;50.906;4.198;2022-12-20T06:03:04;1.40;;;1.30;;
74616;SDS011;63123;50.906;4.198;2022-12-20T06:05:30;1.35;;;1.25;;
74616;SDS011;63123;50.906;4.198;2022-12-20T06:07:56;1.40;;;1.30;;
74616;SDS011;63123;50.906;4.198;2022-12-20T06:10:22;1.90;;;1.60;;
74616;SDS011;63123;50.906;4.198;2022-12-20T06:12:48;1.60;;;1.38;;
74616;SDS011;63123;50.906;4.198;2022-12-20T06:15:14;1.30;;;1.20;;
74616;SDS011;63123;50.906;4.198;2022-12-20T06:17:40;1.58;;;1.38;;
74616;SDS011;63123;50.906;4.198;2022-12-20T06:20:05;1.50;;;1.02;;
74616;SDS011;63123;50.906;4.198;2022-12-20T06:22:32;1.67;;;1.58;;
74616;SDS011;63123;50.906;4.198;2022-12-20T06:24:58;1.40;;;1.30;;
74616;SDS011;63123;50.906;4.198;2022-12-20T06:27:24;1.67;;;1.40;;
74616;SDS011;63123;50.906;4.198;2022-12-20T06:29:50;1.95;;;1.63;;
74616;SDS011;63123;50.906;4.198;2022-12-20T06:32:18;1.25;;;1.15;;
74616;SDS011;63123;50.906;4.198;2022-12-20T06:34:44;2.00;;;1.40;;
74616;SDS011;63123;50.906;4.198;2022-12-20T06:37:10;1.98;;;1.20;;
74616;SDS011;63123;50.906;4.198;2022-12-20T06:39:36;1.10;;;1.00;;
74616;SDS011;63123;50.906;4.198;2022-12-20T06:42:01;1.60;;;1.17;;
74616;SDS011;63123;50.906;4.198;2022-12-20T06:44:29;1.73;;;1.55;;
74616;SDS011;63123;50.906;4.198;2022-12-20T06:46:54;1.40;;;1.30;;
74616;SDS011;63123;50.906;4.198;2022-12-20T06:49:20;1.52;;;1.40;;
74616;SDS011;63123;50.906;4.198;2022-12-20T06:51:46;1.67;;;1.00;;
74616;SDS011;63123;50.906;4.198;2022-12-20T06:54:12;1.75;;;1.20;;
74616;SDS011;63123;50.906;4.198;2022-12-20T06:56:38;1.38;;;1.15;;
74616;SDS011;63123;50.906;4.198;2022-12-20T06:59:04;1.30;;;1.20;;
74616;SDS011;63123;50.906;4.198;2022-12-20T07:01:30;1.20;;;1.10;;
74616;SDS011;63123;50.906;4.198;2022-12-20T07:03:56;1.58;;;1.30;;
74616;SDS011;63123;50.906;4.198;2022-12-20T07:06:21;1.83;;;1.48;;
74616;SDS011;63123;50.906;4.198;2022-12-20T07:08:47;1.40;;;1.13;;
74616;SDS011;63123;50.906;4.198;2022-12-20T07:11:12;1.30;;;1.20;;
74616;SDS011;63123;50.906;4.198;2022-12-20T07:13:38;1.98;;;1.45;;
74616;SDS011;63123;50.906;4.198;2022-12-20T07:16:04;1.30;;;1.20;;
74616;SDS011;63123;50.906;4.198;2022-12-20T07:18:30;1.17;;;1.08;;
74616;SDS011;63123;50.906;4.198;2022-12-20T07:21:03;1.25;;;1.15;;
74616;SDS011;63123;50.906;4.198;2022-12-20T07:23:29;1.25;;;1.15;;
74616;SDS011;63123;50.906;4.198;2022-12-20T07:25:56;1.48;;;1.00;;
74616;SDS011;63123;50.906;4.198;2022-12-20T07:28:23;1.40;;;1.10;;
74616;SDS011;63123;50.906;4.198;2022-12-20T07:30:50;1.42;;;1.33;;
74616;SDS011;63123;50.906;4.198;2022-12-20T07:33:15;1.30;;;1.00;;
74616;SDS011;63123;50.906;4.198;2022-12-20T07:35:41;1.30;;;1.20;;
74616;SDS011;63123;50.906;4.198;2022-12-20T07:38:09;1.20;;;1.08;;
74616;SDS011;63123;50.906;4.198;2022-12-20T07:40:35;1.25;;;1.15;;
74616;SDS011;63123;50.906;4.198;2022-12-20T07:43:04;1.63;;;1.27;;
74616;SDS011;63123;50.906;4.198;2022-12-20T07:45:30;1.40;;;1.27;;
74616;SDS011;63123;50.906;4.198;2022-12-20T07:47:56;1.50;;;1.20;;
74616;SDS011;63123;50.906;4.198;2022-12-20T07:50:22;2.03;;;1.83;;
74616;SDS011;63123;50.906;4.198;2022-12-20T07:52:48;1.20;;;1.10;;
74616;SDS011;63123;50.906;4.198;2022-12-20T07:55:14;1.67;;;1.50;;
74616;SDS011;63123;50.906;4.198;2022-12-20T07:57:45;1.55;;;1.10;;
74616;SDS011;63123;50.906;4.198;2022-12-20T08:00:15;1.70;;;1.60;;
74616;SDS011;63123;50.906;4.198;2022-12-20T08:05:18;1.17;;;1.08;;
74616;SDS011;63123;50.906;4.198;2022-12-20T08:07:44;1.17;;;1.08;;
74616;SDS011;63123;50.906;4.198;2022-12-20T08:10:11;1.20;;;1.10;;
74616;SDS011;63123;50.906;4.198;2022-12-20T08:12:38;1.33;;;1.10;;
74616;SDS011;63123;50.906;4.198;2022-12-20T08:15:05;1.70;;;1.45;;
74616;SDS011;63123;50.906;4.198;2022-12-20T08:17:31;1.60;;;1.40;;
74616;SDS011;63123;50.906;4.198;2022-12-20T08:19:57;3.05;;;1.38;;
74616;SDS011;63123;50.906;4.198;2022-12-20T08:22:24;1.20;;;1.00;;
74616;SDS011;63123;50.906;4.198;2022-12-20T08:24:50;1.33;;;1.17;;
74616;SDS011;63123;50.906;4.198;2022-12-20T08:27:16;1.60;;;1.30;;
74616;SDS011;63123;50.906;4.198;2022-12-20T08:29:41;1.50;;;1.40;;
74616;SDS011;63123;50.906;4.198;2022-12-20T08:32:07;2.42;;;1.13;;
74616;SDS011;63123;50.906;4.198;2022-12-20T08:34:33;1.60;;;1.50;;
74616;SDS011;63123;50.906;4.198;2022-12-20T08:36:58;1.52;;;1.23;;
74616;SDS011;63123;50.906;4.198;2022-12-20T08:39:24;1.77;;;1.20;;
74616;SDS011;63123;50.906;4.198;2022-12-20T08:41:49;1.20;;;1.10;;
74616;SDS011;63123;50.906;4.198;2022-12-20T08:44:15;1.20;;;1.10;;
74616;SDS011;63123;50.906;4.198;2022-12-20T08:46:40;1.35;;;1.10;;
74616;SDS011;63123;50.906;4.198;2022-12-20T08:49:06;1.30;;;1.10;;
74616;SDS011;63123;50.906;4.198;2022-12-20T08:51:32;2.28;;;1.20;;
74616;SDS011;63123;50.906;4.198;2022-12-20T08:53:57;1.40;;;1.23;;
74616;SDS011;63123;50.906;4.198;2022-12-20T08:56:23;1.80;;;1.10;;
74616;SDS011;63123;50.906;4.198;2022-12-20T08:58:48;1.65;;;1.42;;
74616;SDS011;63123;50.906;4.198;2022-12-20T09:01:15;1.30;;;1.20;;
74616;SDS011;63123;50.906;4.198;2022-12-20T09:03:42;1.42;;;1.33;;
74616;SDS011;63123;50.906;4.198;2022-12-20T09:06:13;1.90;;;1.00;;
74616;SDS011;63123;50.906;4.198;2022-12-20T09:08:41;1.30;;;1.15;;
74616;SDS011;63123;50.906;4.198;2022-12-20T09:11:14;1.58;;;1.30;;
74616;SDS011;63123;50.906;4.198;2022-12-20T09:16:08;1.30;;;1.02;;
74616;SDS011;63123;50.906;4.198;2022-12-20T09:18:34;1.55;;;1.40;;
74616;SDS011;63123;50.906;4.198;2022-12-20T09:21:01;1.40;;;1.30;;
74616;SDS011;63123;50.906;4.198;2022-12-20T09:23:29;1.10;;;1.00;;
74616;SDS011;63123;50.906;4.198;2022-12-20T09:25:59;1.40;;;1.15;;
74616;SDS011;63123;50.906;4.198;2022-12-20T09:28:27;1.55;;;1.35;;
74616;SDS011;63123;50.906;4.198;2022-12-20T09:30:56;1.42;;;1.00;;
74616;SDS011;63123;50.906;4.198;2022-12-20T09:33:23;1.27;;;1.17;;
74616;SDS011;63123;50.906;4.198;2022-12-20T09:35:49;1.20;;;0.90;;
74616;SDS011;63123;50.906;4.198;2022-12-20T09:38:14;1.17;;;1.08;;
74616;SDS011;63123;50.906;4.198;2022-12-20T09:40:43;1.95;;;1.58;;
74616;SDS011;63123;50.906;4.198;2022-12-20T09:43:12;1.25;;;1.15;;
74616;SDS011;63123;50.906;4.198;2022-12-20T09:45:38;1.42;;;1.33;;
74616;SDS011;63123;50.906;4.198;2022-12-20T09:48:05;1.27;;;1.17;;
74616;SDS011;63123;50.906;4.198;2022-12-20T09:50:57;2.15;;;1.23;;
74616;SDS011;63123;50.906;4.198;2022-12-20T09:53:39;1.10;;;0.93;;
74616;SDS011;63123;50.906;4.198;2022-12-20T09:56:25;1.50;;;1.10;;
74616;SDS011;63123;50.906;4.198;2022-12-20T09:59:01;1.58;;;1.25;;
74616;SDS011;63123;50.906;4.198;2022-12-20T10:01:31;1.30;;;1.13;;
74616;SDS011;63123;50.906;4.198;2022-12-20T10:04:00;1.20;;;1.02;;
74616;SDS011;63123;50.906;4.198;2022-12-20T10:15:21;1.70;;;1.42;;
74616;SDS011;63123;50.906;4.198;2022-12-20T10:23:14;1.70;;;1.10;;
74616;SDS011;63123;50.906;4.198;2022-12-20T10:25:53;1.02;;;0.93;;
74616;SDS011;63123;50.906;4.198;2022-12-20T10:28:22;1.40;;;1.30;;
74616;SDS011;63123;50.906;4.198;2022-12-20T10:30:52;1.20;;;1.08;;
74616;SDS011;63123;50.906;4.198;2022-12-20T10:33:19;1.63;;;1.20;;
74616;SDS011;63123;50.906;4.198;2022-12-20T10:35:47;1.38;;;1.10;;
74616;SDS011;63123;50.906;4.198;2022-12-20T10:38:14;1.17;;;1.08;;
74616;SDS011;63123;50.906;4.198;2022-12-20T10:43:27;1.25;;;1.08;;
74616;SDS011;63123;50.906;4.198;2022-12-20T10:46:12;1.95;;;1.10;;
74616;SDS011;63123;50.906;4.198;2022-12-20T10:48:41;1.40;;;1.17;;
74616;SDS011;63123;50.906;4.198;2022-12-20T10:53:34;1.38;;;1.25;;
74616;SDS011;63123;50.906;4.198;2022-12-20T10:56:21;1.40;;;1.15;;
74616;SDS011;63123;50.906;4.198;2022-12-20T11:01:32;1.10;;;0.90;;
74616;SDS011;63123;50.906;4.198;2022-12-20T11:04:01;1.77;;;1.30;;
74616;SDS011;63123;50.906;4.198;2022-12-20T11:06:50;1.10;;;1.00;;
74616;SDS011;63123;50.906;4.198;2022-12-20T11:14:45;1.30;;;1.15;;
74616;SDS011;63123;50.906;4.198;2022-12-20T11:17:33;2.03;;;1.20;;
74616;SDS011;63123;50.906;4.198;2022-12-20T11:25:22;1.20;;;1.10;;
74616;SDS011;63123;50.906;4.198;2022-12-20T11:28:13;1.13;;;1.00;;
74616;SDS011;63123;50.906;4.198;2022-12-20T11:34:43;1.23;;;1.00;;
74616;SDS011;63123;50.906;4.198;2022-12-20T11:37:00;1.23;;;1.05;;
74616;SDS011;63123;50.906;4.198;2022-12-20T11:39:34;2.10;;;1.27;;
74616;SDS011;63123;50.906;4.198;2022-12-20T11:51:02;1.50;;;1.10;;
74616;SDS011;63123;50.906;4.198;2022-12-20T11:53:36;1.30;;;1.20;;
74616;SDS011;63123;50.906;4.198;2022-12-20T11:56:15;1.42;;;1.10;;
74616;SDS011;63123;50.906;4.198;2022-12-20T12:01:33;1.17;;;1.00;;
74616;SDS011;63123;50.906;4.198;2022-12-20T12:06:37;1.90;;;1.05;;
74616;SDS011;63123;50.906;4.198;2022-12-20T12:09:26;1.98;;;1.10;;
74616;SDS011;63123;50.906;4.198;2022-12-20T12:12:07;1.13;;;0.90;;
74616;SDS011;63123;50.906;4.198;2022-12-20T12:17:48;0.93;;;0.80;;
74616;SDS011;63123;50.906;4.198;2022-12-20T12:23:16;1.58;;;1.13;;
74616;SDS011;63123;50.906;4.198;2022-12-20T12:25:44;1.33;;;1.00;;
74616;SDS011;63123;50.906;4.198;2022-12-20T12:28:11;0.90;;;0.90;;
74616;SDS011;63123;50.906;4.198;2022-12-20T12:30:39;1.63;;;1.35;;
74616;SDS011;63123;50.906;4.198;2022-12-20T12:33:11;1.65;;;1.20;;
74616;SDS011;63123;50.906;4.198;2022-12-20T12:38:21;1.98;;;1.30;;
74616;SDS011;63123;50.906;4.198;2022-12-20T12:43:52;1.23;;;1.13;;
74616;SDS011;63123;50.906;4.198;2022-12-20T12:46:32;1.90;;;1.45;;
74616;SDS011;63123;50.906;4.198;2022-12-20T12:51:30;1.02;;;0.93;;
74616;SDS011;63123;50.906;4.198;2022-12-20T12:54:03;1.40;;;1.20;;
74616;SDS011;63123;50.906;4.198;2022-12-20T12:56:43;1.20;;;1.10;;
74616;SDS011;63123;50.906;4.198;2022-12-20T13:11:49;1.20;;;1.10;;
74616;SDS011;63123;50.906;4.198;2022-12-20T13:16:47;1.58;;;1.10;;
74616;SDS011;63123;50.906;4.198;2022-12-20T13:25:16;1.42;;;1.10;;
74616;SDS011;63123;50.906;4.198;2022-12-20T13:35:27;1.35;;;1.25;;
74616;SDS011;63123;50.906;4.198;2022-12-20T13:38:34;1.20;;;1.10;;
74616;SDS011;63123;50.906;4.198;2022-12-20T13:44:23;1.60;;;1.30;;
74616;SDS011;63123;50.906;4.198;2022-12-20T13:47:01;2.25;;;1.25;;
74616;SDS011;63123;50.906;4.198;2022-12-20T13:49:38;1.88;;;1.27;;
74616;SDS011;63123;50.906;4.198;2022-12-20T13:54:47;1.20;;;1.08;;
74616;SDS011;63123;50.906;4.198;2022-12-20T13:57:17;1.40;;;1.30;;
74616;SDS011;63123;50.906;4.198;2022-12-20T13:59:48;1.88;;;1.30;;
74616;SDS011;63123;50.906;4.198;2022-12-20T14:02:25;1.60;;;1.20;;
74616;SDS011;63123;50.906;4.198;2022-12-20T14:05:13;1.85;;;1.13;;
74616;SDS011;63123;50.906;4.198;2022-12-20T14:07:44;1.13;;;1.02;;
74616;SDS011;63123;50.906;4.198;2022-12-20T14:10:19;1.50;;;1.30;;
74616;SDS011;63123;50.906;4.198;2022-12-20T14:12:50;1.20;;;1.10;;
74616;SDS011;63123;50.906;4.198;2022-12-20T14:17:50;1.45;;;1.23;;
74616;SDS011;63123;50.906;4.198;2022-12-20T14:20:17;1.35;;;1.13;;
74616;SDS011;63123;50.906;4.198;2022-12-20T14:22:52;1.42;;;1.33;;
74616;SDS011;63123;50.906;4.198;2022-12-20T14:28:01;1.52;;;1.20;;
74616;SDS011;63123;50.906;4.198;2022-12-20T14:30:31;1.40;;;1.20;;
74616;SDS011;63123;50.906;4.198;2022-12-20T14:33:14;1.75;;;1.33;;
74616;SDS011;63123;50.906;4.198;2022-12-20T14:35:49;1.80;;;1.60;;
74616;SDS011;63123;50.906;4.198;2022-12-20T14:38:19;2.03;;;1.73;;
74616;SDS011;63123;50.906;4.198;2022-12-20T14:40:53;1.58;;;1.40;;
74616;SDS011;63123;50.906;4.198;2022-12-20T14:43:27;2.22;;;1.80;;
74616;SDS011;63123;50.906;4.198;2022-12-20T14:46:14;2.60;;;2.10;;
74616;SDS011;63123;50.906;4.198;2022-12-20T14:48:43;2.03;;;1.50;;
74616;SDS011;63123;50.906;4.198;2022-12-20T14:51:08;1.58;;;1.40;;
74616;SDS011;63123;50.906;4.198;2022-12-20T14:53:34;1.95;;;1.48;;
74616;SDS011;63123;50.906;4.198;2022-12-20T14:56:02;1.60;;;1.50;;
74616;SDS011;63123;50.906;4.198;2022-12-20T14:58:29;1.95;;;1.63;;
74616;SDS011;63123;50.906;4.198;2022-12-20T15:00:58;1.60;;;1.50;;
74616;SDS011;63123;50.906;4.198;2022-12-20T15:03:50;2.07;;;1.63;;
74616;SDS011;63123;50.906;4.198;2022-12-20T15:06:38;1.80;;;1.25;;
74616;SDS011;63123;50.906;4.198;2022-12-20T15:09:07;1.83;;;1.73;;
74616;SDS011;63123;50.906;4.198;2022-12-20T15:11:34;1.50;;;1.40;;
74616;SDS011;63123;50.906;4.198;2022-12-20T15:14:01;1.48;;;1.38;;
74616;SDS011;63123;50.906;4.198;2022-12-20T15:16:44;2.15;;;1.58;;
74616;SDS011;63123;50.906;4.198;2022-12-20T15:19:12;1.80;;;1.70;;
74616;SDS011;63123;50.906;4.198;2022-12-20T15:21:38;1.63;;;1.52;;
74616;SDS011;63123;50.906;4.198;2022-12-20T15:24:19;1.70;;;1.60;;
74616;SDS011;63123;50.906;4.198;2022-12-20T15:26:48;1.60;;;1.50;;
74616;SDS011;63123;50.906;4.198;2022-12-20T15:29:15;2.13;;;1.60;;
74616;SDS011;63123;50.906;4.198;2022-12-20T15:31:42;1.63;;;1.30;;
74616;SDS011;63123;50.906;4.198;2022-12-20T15:34:21;1.40;;;1.30;;
74616;SDS011;63123;50.906;4.198;2022-12-20T15:36:53;2.13;;;1.70;;
74616;SDS011;63123;50.906;4.198;2022-12-20T15:39:18;1.60;;;1.50;;
74616;SDS011;63123;50.906;4.198;2022-12-20T15:41:46;1.85;;;1.73;;
74616;SDS011;63123;50.906;4.198;2022-12-20T15:44:14;1.38;;;1.25;;
74616;SDS011;63123;50.906;4.198;2022-12-20T15:46:42;3.15;;;1.85;;
74616;SDS011;63123;50.906;4.198;2022-12-20T15:49:15;1.40;;;1.30;;
74616;SDS011;63123;50.906;4.198;2022-12-20T15:51:45;2.88;;;1.73;;
74616;SDS011;63123;50.906;4.198;2022-12-20T15:54:15;1.85;;;1.10;;
74616;SDS011;63123;50.906;4.198;2022-12-20T15:57:08;1.85;;;1.42;;
74616;SDS011;63123;50.906;4.198;2022-12-20T15:59:37;2.65;;;1.80;;
74616;SDS011;63123;50.906;4.198;2022-12-20T16:02:05;2.17;;;1.65;;
74616;SDS011;63123;50.906;4.198;2022-12-20T16:04:46;1.23;;;1.10;;
74616;SDS011;63123;50.906;4.198;2022-12-20T16:07:12;1.50;;;1.40;;
74616;SDS011;63123;50.906;4.198;2022-12-20T16:09:38;1.85;;;1.50;;
74616;SDS011;63123;50.906;4.198;2022-12-20T16:12:04;1.70;;;1.50;;
74616;SDS011;63123;50.906;4.198;2022-12-20T16:14:39;1.60;;;1.48;;
74616;SDS011;63123;50.906;4.198;2022-12-20T16:17:04;1.27;;;1.17;;
74616;SDS011;63123;50.906;4.198;2022-12-20T16:19:30;1.50;;;1.40;;
74616;SDS011;63123;50.906;4.198;2022-12-20T16:21:55;1.70;;;1.60;;
74616;SDS011;63123;50.906;4.198;2022-12-20T16:24:21;1.88;;;1.50;;
74616;SDS011;63123;50.906;4.198;2022-12-20T16:26:47;1.58;;;1.48;;
74616;SDS011;63123;50.906;4.198;2022-12-20T16:29:13;1.85;;;1.75;;
74616;SDS011;63123;50.906;4.198;2022-12-20T16:31:39;1.83;;;1.63;;
74616;SDS011;63123;50.906;4.198;2022-12-20T16:34:09;2.15;;;1.23;;
74616;SDS011;63123;50.906;4.198;2022-12-20T16:36:37;2.05;;;1.65;;
74616;SDS011;63123;50.906;4.198;2022-12-20T16:39:03;2.42;;;1.65;;
74616;SDS011;63123;50.906;4.198;2022-12-20T16:41:30;1.73;;;1.60;;
74616;SDS011;63123;50.906;4.198;2022-12-20T16:43:57;1.83;;;1.70;;
74616;SDS011;63123;50.906;4.198;2022-12-20T16:46:25;1.52;;;1.38;;
74616;SDS011;63123;50.906;4.198;2022-12-20T16:48:53;1.83;;;1.73;;
74616;SDS011;63123;50.906;4.198;2022-12-20T16:51:25;1.73;;;1.30;;
74616;SDS011;63123;50.906;4.198;2022-12-20T16:53:56;1.60;;;1.50;;
74616;SDS011;63123;50.906;4.198;2022-12-20T16:56:24;1.65;;;1.50;;
74616;SDS011;63123;50.906;4.198;2022-12-20T16:58:50;1.73;;;1.55;;
74616;SDS011;63123;50.906;4.198;2022-12-20T17:01:17;1.38;;;1.27;;
74616;SDS011;63123;50.906;4.198;2022-12-20T17:03:48;1.63;;;1.50;;
74616;SDS011;63123;50.906;4.198;2022-12-20T17:06:14;2.65;;;2.20;;